Doris, Washington
Current Conditions -  °F | °C
As of 2:21 AM on Sunday 21 Dec 2014 (Local Time) from K1YT Reporting Station
Broken Clouds Broken Clouds  
Wind Chill: 38°   Ceiling: 21000
Heat Index: 41°   Visibility: 10mi
Dew Point: 39°   Wind: 5mph
Humidity: 93%   Direction: 160°SSE
Pressure: 29.61"   Gusts: NA
Location:  46.8679°N, 120.008°W
Report Text: K1YT 211021Z AUTO 16004KT 10SM SCT050 BKN210 05/04 A2961 RMK AO2 SHRAE0956RAB0956E09SHRAB09E12RAB12E21
Loading
Personal Weather Stations






























Interactive Weather Map New forecast layout! Learn more

10-Day Weather Forecast

Advertisements
Track Severe Weather on mobile